»·PEaware :: N6123X KAPA-KFTG

N6123X :: KAPA-KFTG

FLIGHT INFORMATION

Flight Status: Arrived
Operator: Privately registered:
United States
More flights under this callsign
Pilot: Paul C. (10405)
Aircraft: BEECH AIRCRAFT BONANZA
(BE36)
More flights by this aircraft type
Origin: KAPA Centennial
United States
Destination: KFTG Front Range
United States
More flights between these airports :: More routes between these airports
Route: +FQF
File this flight plan on PilotEdge
Remarks: Plan RNAV 26 approach
Altitude:
(Current/Filed)
7,000ft
Speed:
(Current/Filed)
165kts
Departed: 07-Jul-18 09:02 AM
Arrived: 07-Jul-18 09:33 AM
Distance/Time
Traveled:
19nm/0:31
Distance/Time
To Go:
Arrived

Flight Plot

Page will automatically refresh every two minutes.


Map Options




Map Legend


Flown Route
Filed Route
Departure Airport
Arrival Airport
Navaid (VOR, NDB)
Fix

Horizontal Profiles

Position Reports

Time Latitude Longitude Heading Altitude Ground
Speed
07-Jul-18 08:20 39.580273 -104.848824 90 5802ft 0kts
07-Jul-18 08:21 39.580273 -104.848824 90 5802ft 0kts
07-Jul-18 08:22 39.580273 -104.848824 90 5802ft 0kts
07-Jul-18 08:23 39.580273 -104.848824 90 5802ft 0kts
07-Jul-18 08:24 39.580273 -104.848824 90 5802ft 0kts
07-Jul-18 08:25 39.580273 -104.848824 90 5802ft 0kts
07-Jul-18 08:26 39.580273 -104.848824 90 5802ft 0kts
07-Jul-18 08:27 39.580273 -104.848824 90 5802ft 0kts
07-Jul-18 08:28 39.580273 -104.848824 90 5802ft 0kts
07-Jul-18 08:29 39.580273 -104.848824 90 5802ft 0kts
07-Jul-18 08:30 39.580273 -104.848824 90 5802ft 0kts
07-Jul-18 08:31 39.580273 -104.848824 90 5802ft 0kts
07-Jul-18 08:32 39.580273 -104.848824 90 5802ft 0kts
07-Jul-18 08:33 39.580273 -104.848824 90 5802ft 0kts
07-Jul-18 08:34 39.580273 -104.848824 90 5802ft 0kts
07-Jul-18 08:35 39.580273 -104.848824 90 5802ft 0kts
07-Jul-18 08:36 39.580273 -104.848824 90 5802ft 0kts
07-Jul-18 08:37 39.580273 -104.848824 90 5802ft 0kts
07-Jul-18 08:38 39.580273 -104.848824 90 5802ft 0kts
07-Jul-18 08:39 39.580273 -104.848824 90 5802ft 0kts
07-Jul-18 08:40 39.580273 -104.848824 90 5802ft 0kts
07-Jul-18 08:41 39.580273 -104.848824 90 5802ft 0kts
07-Jul-18 08:42 39.580273 -104.848824 90 5802ft 0kts
07-Jul-18 08:43 39.580273 -104.848824 90 5802ft 0kts
07-Jul-18 08:44 39.580273 -104.848824 90 5802ft 0kts
07-Jul-18 08:45 39.580273 -104.848824 90 5802ft 0kts
07-Jul-18 08:46 39.580273 -104.848824 90 5802ft 0kts
07-Jul-18 08:47 39.580273 -104.848824 90 5802ft 0kts
07-Jul-18 08:48 39.580273 -104.848824 90 5802ft 0kts
07-Jul-18 08:49 39.580273 -104.848824 90 5802ft 0kts
07-Jul-18 08:50 39.580273 -104.848824 90 5802ft 0kts
07-Jul-18 08:51 39.580274 -104.848825 267 5802ft 0kts
07-Jul-18 08:52 39.580274 -104.848825 267 5802ft 0kts
07-Jul-18 08:53 39.580274 -104.848825 267 5802ft 0kts
07-Jul-18 08:54 39.580274 -104.848825 267 5802ft 0kts
07-Jul-18 08:55 39.580274 -104.848825 267 5802ft 0kts
07-Jul-18 08:56 39.580274 -104.848825 267 5802ft 0kts
07-Jul-18 08:57 39.580274 -104.848825 267 5802ft 0kts
07-Jul-18 08:58 39.581696 -104.849972 357 5801ft 13kts
07-Jul-18 08:59 39.583149 -104.850018 9 5798ft 5kts
07-Jul-18 09:00 39.584091 -104.850070 305 5792ft 0kts
07-Jul-18 09:01 39.584116 -104.850227 271 5793ft 4kts
07-Jul-18 09:02 39.582945 -104.851414 176 5801ft 30kts
07-Jul-18 09:03 39.558122 -104.850911 180 6311ft 115kts
07-Jul-18 09:04 39.522950 -104.845693 136 7044ft 142kts
07-Jul-18 09:05 39.519047 -104.793909 88 7762ft 151kts
07-Jul-18 09:06 39.519788 -104.735961 88 7991ft 175kts
07-Jul-18 09:07 39.549274 -104.695223 21 7988ft 180kts
07-Jul-18 09:08 39.595811 -104.669751 21 7984ft 182kts
07-Jul-18 09:09 39.642713 -104.644034 21 7983ft 183kts
07-Jul-18 09:10 39.686584 -104.613267 67 7970ft 185kts
07-Jul-18 09:11 39.682944 -104.547229 88 7979ft 186kts
07-Jul-18 09:12 39.684427 -104.480074 87 7977ft 186kts
07-Jul-18 09:13 39.686007 -104.413000 87 7974ft 186kts
07-Jul-18 09:14 39.687524 -104.346439 88 8008ft 183kts
07-Jul-18 09:15 39.688983 -104.280997 88 8010ft 179kts
07-Jul-18 09:16 39.690395 -104.216387 88 8009ft 179kts
07-Jul-18 09:17 39.691770 -104.151835 88 8010ft 179kts
07-Jul-18 09:18 39.693114 -104.087211 88 8017ft 179kts
07-Jul-18 09:19 39.694426 -104.022337 88 8025ft 180kts
07-Jul-18 09:20 39.695730 -103.957524 87 8031ft 180kts
07-Jul-18 09:21 39.730429 -103.955276 274 7275ft 180kts
07-Jul-18 09:22 39.733197 -104.013148 282 7212ft 151kts
07-Jul-18 09:23 39.743357 -104.064407 284 7210ft 143kts
07-Jul-18 09:24 39.753342 -104.113788 284 7209ft 140kts
07-Jul-18 09:25 39.763231 -104.162761 284 7211ft 141kts
07-Jul-18 09:26 39.773431 -104.213351 284 7210ft 146kts
07-Jul-18 09:27 39.783774 -104.264858 284 7210ft 147kts
07-Jul-18 09:28 39.790028 -104.317179 270 7210ft 147kts
07-Jul-18 09:29 39.790769 -104.370615 271 7210ft 149kts
07-Jul-18 09:30 39.791697 -104.425294 271 7113ft 152kts
07-Jul-18 09:31 39.792407 -104.468275 271 6505ft 108kts
07-Jul-18 09:32 39.793053 -104.506714 271 5945ft 106kts
07-Jul-18 09:33 39.793649 -104.542240 269 5473ft 63kts
07-Jul-18 09:34 39.792096 -104.549051 92 5480ft 20kts
07-Jul-18 09:35 39.791819 -104.548436 140 5479ft 0kts
07-Jul-18 09:36 39.791943 -104.548258 0 5479ft 0kts
07-Jul-18 09:37 39.791943 -104.548258 0 5479ft 0kts
07-Jul-18 09:38 39.791943 -104.548258 0 5479ft 0kts
07-Jul-18 09:39 39.791943 -104.548258 0 5479ft 0kts
07-Jul-18 09:40 39.791943 -104.548258 0 5479ft 0kts
07-Jul-18 09:41 39.791943 -104.548258 0 5479ft 0kts

Navigation Log

Ident Type
Flight plan parsing failed, navigation log unavailable